Aviation Digital Data Service (ADDS)

Output produced by METARs form (0242 UTC 24 July 2017)
found at http://www.aviationweather.gov/adds/metars/
 
TAF GGOV 232300Z 2400/2424 26005KT 9999 SCT014 
     TEMPO 2401/2407 4000 TSRA SCT005 BKN014 FEW020CB